createdAt,value
2023-06-19T00:00:10.366Z,21.36
2023-06-19T00:01:10.518Z,21.46
2023-06-19T00:02:10.614Z,21.52
2023-06-19T00:03:10.703Z,21.56
2023-06-19T00:04:10.707Z,21.56
2023-06-19T00:05:10.821Z,21.61
2023-06-19T00:06:10.855Z,21.64
2023-06-19T00:07:10.959Z,21.68
2023-06-19T00:08:11.058Z,21.70
2023-06-19T00:09:11.135Z,21.73
2023-06-19T00:10:11.200Z,21.68
2023-06-19T00:11:11.279Z,21.63
2023-06-19T00:12:11.317Z,21.58
2023-06-19T00:13:11.446Z,21.56
2023-06-19T00:14:11.504Z,21.53
2023-06-19T00:15:11.585Z,21.56
2023-06-19T00:16:11.654Z,21.58
2023-06-19T00:17:11.729Z,21.61
2023-06-19T00:18:11.865Z,21.63
2023-06-19T00:19:11.880Z,21.59
2023-06-19T00:20:11.944Z,21.64
2023-06-19T00:21:12.005Z,21.66
2023-06-19T00:22:12.086Z,21.67
2023-06-19T00:23:12.165Z,21.68
2023-06-19T00:24:12.265Z,21.70
2023-06-19T00:25:12.296Z,21.70
2023-06-19T00:26:12.390Z,21.70
2023-06-19T00:27:12.479Z,21.71
2023-06-19T00:28:12.612Z,21.70
2023-06-19T00:29:12.612Z,21.68
2023-06-19T00:30:12.691Z,21.67
2023-06-19T00:31:12.748Z,21.70
2023-06-19T00:32:12.820Z,21.71
2023-06-19T00:33:12.917Z,21.74
2023-06-19T00:34:12.966Z,21.79
2023-06-19T00:35:13.077Z,21.82
2023-06-19T00:36:13.134Z,21.77
2023-06-19T00:37:13.214Z,21.73
2023-06-19T00:38:13.300Z,21.71
2023-06-19T00:39:13.348Z,21.70
2023-06-19T00:40:13.421Z,21.68
2023-06-19T00:41:13.529Z,21.70
2023-06-19T00:42:13.569Z,21.68
2023-06-19T00:43:13.707Z,21.67
2023-06-19T00:44:13.763Z,21.67
2023-06-19T00:45:13.858Z,21.64
2023-06-19T00:46:13.981Z,21.66
2023-06-19T00:47:13.997Z,21.66
2023-06-19T00:48:14.099Z,21.66
2023-06-19T00:49:14.158Z,21.63
2023-06-19T00:50:14.220Z,21.56
2023-06-19T00:51:14.310Z,21.55
2023-06-19T00:52:14.373Z,21.52
2023-06-19T00:53:14.504Z,21.43
2023-06-19T00:54:14.561Z,21.37
2023-06-19T00:55:14.631Z,21.34
2023-06-19T00:56:14.693Z,21.30
2023-06-19T00:57:14.767Z,21.30
2023-06-19T00:58:14.829Z,21.30
2023-06-19T00:59:14.895Z,21.24
2023-06-19T01:00:14.977Z,21.27
2023-06-19T01:01:15.124Z,21.27
2023-06-19T01:02:15.231Z,21.19
2023-06-19T01:03:17.822Z,21.09
2023-06-19T01:04:15.408Z,21.03
2023-06-19T01:05:15.400Z,21.06
2023-06-19T01:06:15.489Z,21.09
2023-06-19T01:07:15.573Z,21.12
2023-06-19T01:08:15.636Z,21.15
2023-06-19T01:09:15.708Z,21.16
2023-06-19T01:10:15.776Z,21.15
2023-06-19T01:11:26.122Z,21.21
2023-06-19T01:12:15.971Z,21.22
2023-06-19T01:13:16.054Z,21.24
2023-06-19T01:14:16.119Z,21.26
2023-06-19T01:15:16.221Z,21.27
2023-06-19T01:16:16.292Z,21.27
2023-06-19T01:17:16.403Z,21.27
2023-06-19T01:18:16.458Z,21.28
2023-06-19T01:19:16.529Z,21.22
2023-06-19T01:20:16.632Z,21.21
2023-06-19T01:21:16.686Z,21.24
2023-06-19T01:22:16.753Z,21.27
2023-06-19T01:23:16.840Z,21.30
2023-06-19T01:24:16.923Z,21.33
2023-06-19T01:25:16.974Z,21.34
2023-06-19T01:26:17.033Z,21.37
2023-06-19T01:27:17.088Z,21.38
2023-06-19T01:28:17.247Z,21.38
2023-06-19T01:29:17.265Z,21.42
2023-06-19T01:30:17.377Z,21.42
2023-06-19T01:31:17.426Z,21.45
2023-06-19T01:32:17.504Z,21.46
2023-06-19T01:33:17.583Z,21.49
2023-06-19T01:34:17.639Z,21.52
2023-06-19T01:35:17.708Z,21.53
2023-06-19T01:36:17.804Z,21.58
2023-06-19T01:37:17.865Z,21.61
2023-06-19T01:38:17.983Z,21.66
2023-06-19T01:39:18.034Z,21.68
2023-06-19T01:40:18.147Z,21.71
2023-06-19T01:41:18.204Z,21.75
2023-06-19T01:42:18.295Z,21.75
2023-06-19T01:43:18.364Z,21.77
2023-06-19T01:44:18.423Z,21.77
2023-06-19T01:45:18.473Z,21.79
2023-06-19T01:46:18.623Z,21.77
2023-06-19T01:47:18.652Z,21.77
2023-06-19T01:48:18.770Z,21.77
2023-06-19T01:49:18.816Z,21.73
2023-06-19T01:50:18.921Z,21.66
2023-06-19T01:51:18.997Z,21.63
2023-06-19T01:52:19.054Z,21.64
2023-06-19T01:53:19.118Z,21.61
2023-06-19T01:54:19.181Z,21.56
2023-06-19T01:55:19.243Z,21.58
2023-06-19T01:56:19.305Z,21.59
2023-06-19T01:57:19.376Z,21.59
2023-06-19T01:58:19.503Z,21.58
2023-06-19T01:59:19.553Z,21.58
2023-06-19T02:00:19.658Z,21.59
2023-06-19T02:01:19.726Z,21.59
2023-06-19T02:02:19.834Z,21.61
2023-06-19T02:03:19.983Z,21.55
2023-06-19T02:04:19.971Z,21.51
2023-06-19T02:05:20.112Z,21.49
2023-06-19T02:06:20.137Z,21.48
2023-06-19T02:07:20.216Z,21.45
2023-06-19T02:08:20.318Z,21.42
2023-06-19T02:09:20.371Z,21.42
2023-06-19T02:10:20.557Z,21.40
2023-06-19T02:11:20.529Z,21.36
2023-06-19T02:12:20.617Z,21.33
2023-06-19T02:13:20.731Z,21.34
2023-06-19T02:14:20.786Z,21.28
2023-06-19T02:15:20.837Z,21.27
2023-06-19T02:16:20.970Z,21.24
2023-06-19T02:17:21.036Z,21.24
2023-06-19T02:18:21.147Z,21.19
2023-06-19T02:19:21.193Z,21.26
2023-06-19T02:20:21.365Z,21.26
2023-06-19T02:21:21.361Z,21.30
2023-06-19T02:22:21.466Z,21.26
2023-06-19T02:23:21.546Z,21.22
2023-06-19T02:24:21.677Z,21.22
2023-06-19T02:25:21.690Z,21.21
2023-06-19T02:26:21.797Z,21.21
2023-06-19T02:27:21.872Z,21.19
2023-06-19T02:28:21.958Z,21.18
2023-06-19T02:29:22.007Z,21.15
2023-06-19T02:30:22.599Z,21.12
2023-06-19T02:31:22.192Z,21.08
2023-06-19T02:32:22.323Z,21.03
2023-06-19T02:33:22.365Z,21.01
2023-06-19T02:34:22.450Z,20.98
2023-06-19T02:35:22.520Z,20.91
2023-06-19T02:36:22.584Z,20.90
2023-06-19T02:37:22.705Z,20.85
2023-06-19T02:38:24.520Z,20.90
2023-06-19T02:39:22.826Z,20.90
2023-06-19T02:40:23.121Z,20.90
2023-06-19T02:41:23.005Z,20.90
2023-06-19T02:42:23.075Z,20.87
2023-06-19T02:43:23.144Z,20.87
2023-06-19T02:44:23.229Z,20.88
2023-06-19T02:45:23.305Z,20.88
2023-06-19T02:46:23.430Z,20.87
2023-06-19T02:47:23.486Z,20.82
2023-06-19T02:48:23.526Z,20.78
2023-06-19T02:49:23.638Z,20.75
2023-06-19T02:50:24.022Z,20.72
2023-06-19T02:51:23.766Z,20.66
2023-06-19T02:52:23.843Z,20.66
2023-06-19T02:53:23.938Z,20.66
2023-06-19T02:54:24.023Z,20.63
2023-06-19T02:55:24.100Z,20.61
2023-06-19T02:56:24.153Z,20.56
2023-06-19T02:57:24.261Z,20.61
2023-06-19T02:58:24.326Z,20.57
2023-06-19T02:59:24.483Z,20.57
2023-06-19T03:00:24.748Z,20.57
2023-06-19T03:01:24.613Z,20.57
2023-06-19T03:02:24.675Z,20.57
2023-06-19T03:03:24.869Z,20.58
2023-06-19T03:04:26.744Z,20.54
2023-06-19T03:05:24.902Z,20.51
2023-06-19T03:06:24.957Z,20.53
2023-06-19T03:07:25.047Z,20.51
2023-06-19T03:08:25.114Z,20.53
2023-06-19T03:09:25.244Z,20.53
2023-06-19T03:10:25.429Z,20.51
2023-06-19T03:11:25.350Z,20.51
2023-06-19T03:12:25.401Z,20.48
2023-06-19T03:13:25.501Z,20.51
2023-06-19T03:14:25.564Z,20.51
2023-06-19T03:15:25.628Z,20.53
2023-06-19T03:16:25.731Z,20.51
2023-06-19T03:17:25.820Z,20.51
2023-06-19T03:18:25.838Z,20.50
2023-06-19T03:19:25.960Z,20.51
2023-06-19T03:20:26.475Z,20.51
2023-06-19T03:21:26.121Z,20.53
2023-06-19T03:22:26.159Z,20.51
2023-06-19T03:23:26.230Z,20.50
2023-06-19T03:24:26.339Z,20.41
2023-06-19T03:25:26.380Z,20.41
2023-06-19T03:26:26.442Z,20.40
2023-06-19T03:27:26.513Z,20.41
2023-06-19T03:28:26.586Z,20.42
2023-06-19T03:29:26.708Z,20.40
2023-06-19T03:30:26.924Z,20.41
2023-06-19T03:31:26.806Z,20.38
2023-06-19T03:32:26.893Z,20.35
2023-06-19T03:33:26.936Z,20.33
2023-06-19T03:34:27.061Z,20.35
2023-06-19T03:35:27.132Z,20.33
2023-06-19T03:36:27.211Z,20.34
2023-06-19T03:37:27.280Z,20.38
2023-06-19T03:38:27.336Z,20.40
2023-06-19T03:39:27.430Z,20.40
2023-06-19T03:40:28.950Z,20.42
2023-06-19T03:41:27.554Z,20.44
2023-06-19T03:42:27.621Z,20.41
2023-06-19T03:43:27.723Z,20.42
2023-06-19T03:44:27.799Z,20.46
2023-06-19T03:45:27.866Z,20.48
2023-06-19T03:46:27.945Z,20.48
2023-06-19T03:47:28.022Z,20.46
2023-06-19T03:48:28.075Z,20.44
2023-06-19T03:49:28.185Z,20.37
2023-06-19T03:50:28.243Z,20.40
2023-06-19T03:51:28.345Z,20.38
2023-06-19T03:52:28.410Z,20.41
2023-06-19T03:53:28.497Z,20.42
2023-06-19T03:54:28.620Z,20.48
2023-06-19T03:55:28.660Z,20.50
2023-06-19T03:56:28.716Z,20.58
2023-06-19T03:57:28.780Z,20.63
2023-06-19T03:58:28.857Z,20.64
2023-06-19T03:59:28.948Z,20.69
2023-06-19T04:00:28.992Z,20.72
2023-06-19T04:01:29.116Z,20.76
2023-06-19T04:02:29.249Z,20.79
2023-06-19T04:03:29.336Z,20.85
2023-06-19T04:04:29.354Z,20.87
2023-06-19T04:05:29.399Z,20.90
2023-06-19T04:06:29.466Z,20.93
2023-06-19T04:07:29.551Z,20.96
2023-06-19T04:08:29.582Z,20.97
2023-06-19T04:09:29.696Z,21.00
2023-06-19T04:10:29.750Z,21.00
2023-06-19T04:11:29.841Z,20.98
2023-06-19T04:12:29.910Z,21.00
2023-06-19T04:13:30.031Z,21.05
2023-06-19T04:14:30.086Z,21.05
2023-06-19T04:15:30.190Z,21.05
2023-06-19T04:16:30.329Z,21.03
2023-06-19T04:17:30.335Z,21.01
2023-06-19T04:18:30.389Z,21.00
2023-06-19T04:19:30.517Z,20.94
2023-06-19T04:20:30.559Z,20.85
2023-06-19T04:21:30.632Z,20.88
2023-06-19T04:22:30.687Z,20.93
2023-06-19T04:23:30.788Z,20.91
2023-06-19T04:24:30.918Z,20.96
2023-06-19T04:25:30.930Z,21.00
2023-06-19T04:26:30.997Z,21.03
2023-06-19T04:27:31.083Z,21.05
2023-06-19T04:28:31.143Z,21.08
2023-06-19T04:29:31.225Z,21.08
2023-06-19T04:30:31.279Z,21.11
2023-06-19T04:31:31.374Z,21.11
2023-06-19T04:32:31.502Z,21.12
2023-06-19T04:33:31.623Z,21.13
2023-06-19T04:34:31.626Z,21.12
2023-06-19T04:35:31.683Z,21.11
2023-06-19T04:36:31.761Z,21.11
2023-06-19T04:37:31.865Z,21.13
2023-06-19T04:38:31.918Z,21.18
2023-06-19T04:39:32.061Z,21.19
2023-06-19T04:40:32.086Z,21.21
2023-06-19T04:41:32.161Z,21.26
2023-06-19T04:42:32.249Z,21.28
2023-06-19T04:43:32.319Z,21.28
2023-06-19T04:44:32.414Z,21.30
2023-06-19T04:45:32.480Z,21.30
2023-06-19T04:46:32.565Z,21.33
2023-06-19T04:47:43.576Z,21.36
2023-06-19T04:48:32.716Z,21.37
2023-06-19T04:49:32.813Z,21.38
2023-06-19T04:50:32.860Z,21.37
2023-06-19T04:51:32.910Z,21.38
2023-06-19T04:52:32.967Z,21.40
2023-06-19T04:53:33.081Z,21.42
2023-06-19T04:54:33.160Z,21.46
2023-06-19T04:55:33.217Z,21.46
2023-06-19T04:56:33.294Z,21.48
2023-06-19T04:57:33.380Z,21.49
2023-06-19T04:58:33.428Z,21.52
2023-06-19T04:59:33.548Z,21.55
2023-06-19T05:00:33.605Z,21.58
2023-06-19T05:01:33.734Z,21.59
2023-06-19T05:02:33.812Z,21.59
2023-06-19T05:03:33.890Z,21.59
2023-06-19T05:04:34.763Z,21.63
2023-06-19T05:05:34.026Z,21.64
2023-06-19T05:06:34.112Z,21.66
2023-06-19T05:07:34.200Z,21.67
2023-06-19T05:08:34.243Z,21.71
2023-06-19T05:09:34.347Z,21.74
2023-06-19T05:10:34.477Z,21.77
2023-06-19T05:11:34.520Z,21.82
2023-06-19T05:12:34.606Z,21.86
2023-06-19T05:13:34.704Z,21.90
2023-06-19T05:14:34.763Z,21.90
2023-06-19T05:15:34.907Z,21.96
2023-06-19T05:16:37.030Z,21.99
2023-06-19T05:17:35.046Z,22.02
2023-06-19T05:18:35.085Z,22.04
2023-06-19T05:19:35.162Z,22.06
2023-06-19T05:20:35.264Z,22.08
2023-06-19T05:21:35.321Z,22.14
2023-06-19T05:22:35.393Z,22.17
2023-06-19T05:23:35.477Z,22.21
2023-06-19T05:24:35.670Z,22.26
2023-06-19T05:25:35.644Z,22.27
2023-06-19T05:26:35.714Z,22.33
2023-06-19T05:27:35.802Z,22.41
2023-06-19T05:28:35.884Z,22.45
2023-06-19T05:29:35.975Z,22.52
2023-06-19T05:30:36.054Z,22.66
2023-06-19T05:31:36.131Z,22.81
2023-06-19T05:32:36.237Z,22.86
2023-06-19T05:33:36.346Z,22.94
2023-06-19T05:34:36.379Z,23.06
2023-06-19T05:35:36.482Z,23.21
2023-06-19T05:36:36.537Z,23.38
2023-06-19T05:37:36.626Z,23.59
2023-06-19T05:38:36.686Z,23.84
2023-06-19T05:39:36.801Z,24.04
2023-06-19T05:40:36.883Z,24.11
2023-06-19T05:41:36.942Z,24.30
2023-06-19T05:42:37.025Z,24.41
2023-06-19T05:43:37.119Z,24.60
2023-06-19T05:44:37.171Z,24.77
2023-06-19T05:45:37.321Z,24.99
2023-06-19T05:46:37.350Z,25.20
2023-06-19T05:47:37.502Z,25.38
2023-06-19T05:48:37.503Z,25.48
2023-06-19T05:49:37.606Z,25.57
2023-06-19T05:50:37.711Z,25.76
2023-06-19T05:51:37.777Z,26.00
2023-06-19T05:52:37.850Z,26.29
2023-06-19T05:53:37.959Z,26.61
2023-06-19T05:54:37.999Z,26.93
2023-06-19T05:55:38.124Z,27.18
2023-06-19T05:56:38.162Z,27.12
2023-06-19T05:57:38.260Z,26.98
2023-06-19T05:58:38.338Z,26.84
2023-06-19T05:59:38.428Z,26.98
2023-06-19T06:00:38.530Z,27.18
2023-06-19T06:01:38.617Z,27.30
2023-06-19T06:02:38.706Z,27.35
2023-06-19T06:03:38.732Z,27.13
2023-06-19T06:04:38.874Z,26.94
2023-06-19T06:05:38.907Z,26.53
2023-06-19T06:06:38.952Z,26.24
2023-06-19T06:07:41.232Z,26.08
2023-06-19T06:08:39.114Z,25.83
2023-06-19T06:09:39.203Z,25.46
2023-06-19T06:10:39.313Z,25.35
2023-06-19T06:11:39.378Z,25.35
2023-06-19T06:12:39.455Z,25.34
2023-06-19T06:13:39.557Z,25.34
2023-06-19T06:14:39.609Z,25.30
2023-06-19T06:15:39.726Z,25.27
2023-06-19T06:16:39.794Z,25.16
2023-06-19T06:17:39.876Z,25.07
2023-06-19T06:18:39.935Z,24.97
2023-06-19T06:19:40.088Z,24.87
2023-06-19T06:20:40.120Z,24.84
2023-06-19T06:21:40.180Z,24.82
2023-06-19T06:22:40.256Z,24.77
2023-06-19T06:23:40.352Z,24.68
2023-06-19T06:24:40.470Z,24.67
2023-06-19T06:25:40.551Z,24.70
2023-06-19T06:26:40.581Z,24.68
2023-06-19T06:27:40.673Z,24.66
2023-06-19T06:28:40.835Z,24.60
2023-06-19T06:29:40.829Z,24.60
2023-06-19T06:30:40.931Z,24.56
2023-06-19T06:31:40.997Z,24.52
2023-06-19T06:32:41.121Z,24.49
2023-06-19T06:33:41.163Z,24.48
2023-06-19T06:34:41.240Z,24.41
2023-06-19T06:35:41.358Z,24.31
2023-06-19T06:36:52.788Z,24.27
2023-06-19T06:37:41.654Z,24.18
2023-06-19T06:38:41.568Z,23.97
2023-06-19T06:39:41.663Z,23.72
2023-06-19T06:40:41.781Z,23.59
2023-06-19T06:41:41.842Z,23.45
2023-06-19T06:42:41.899Z,23.37
2023-06-19T06:43:41.987Z,23.35
2023-06-19T06:44:42.081Z,23.38
2023-06-19T06:45:42.585Z,23.39
2023-06-19T06:46:42.227Z,23.41
2023-06-19T06:47:42.333Z,23.45
2023-06-19T06:48:42.378Z,23.50
2023-06-19T06:49:42.470Z,23.56
2023-06-19T06:50:42.571Z,23.59
2023-06-19T06:51:42.651Z,23.60
2023-06-19T06:52:42.760Z,23.59
2023-06-19T06:53:42.830Z,23.60
2023-06-19T06:54:42.937Z,23.59
2023-06-19T06:55:43.012Z,23.59
2023-06-19T06:56:43.098Z,23.63
2023-06-19T06:57:43.156Z,23.68
2023-06-19T06:58:43.265Z,23.68
2023-06-19T06:59:43.310Z,23.75
2023-06-19T07:00:43.448Z,23.84
2023-06-19T07:01:43.473Z,23.93
2023-06-19T07:02:43.703Z,24.02
2023-06-19T07:03:43.748Z,24.08
2023-06-19T07:04:43.755Z,24.42
2023-06-19T07:05:43.813Z,24.55
2023-06-19T07:06:43.883Z,24.67
2023-06-19T07:07:43.952Z,24.84
2023-06-19T07:08:44.116Z,24.99
2023-06-19T07:09:44.135Z,25.16
2023-06-19T07:10:44.264Z,25.24
2023-06-19T07:11:44.288Z,25.34
2023-06-19T07:12:44.388Z,25.45
2023-06-19T07:13:44.478Z,25.57
2023-06-19T07:14:44.620Z,25.61
2023-06-19T07:15:44.656Z,26.03
2023-06-19T07:16:44.804Z,26.35
2023-06-19T07:17:44.792Z,26.66
2023-06-19T07:18:44.870Z,26.78
2023-06-19T07:19:44.930Z,26.76
2023-06-19T07:20:45.044Z,26.61
2023-06-19T07:21:45.110Z,26.41
2023-06-19T07:22:45.211Z,26.28
2023-06-19T07:23:45.284Z,26.21
2023-06-19T07:24:45.399Z,26.19
2023-06-19T07:25:45.475Z,26.23
2023-06-19T07:26:45.549Z,26.41
2023-06-19T07:27:45.631Z,26.54
2023-06-19T07:28:45.713Z,26.68
2023-06-19T07:29:45.791Z,26.78
2023-06-19T07:30:47.555Z,26.97
2023-06-19T07:31:45.946Z,27.05
2023-06-19T07:32:46.124Z,27.18
2023-06-19T07:33:46.143Z,27.31
2023-06-19T07:34:46.239Z,27.46
2023-06-19T07:35:46.312Z,27.62
2023-06-19T07:36:46.432Z,27.72
2023-06-19T07:37:46.469Z,27.93
2023-06-19T07:38:46.566Z,28.21
2023-06-19T07:39:46.640Z,28.46
2023-06-19T07:40:46.741Z,28.80
2023-06-19T07:41:46.849Z,29.03
2023-06-19T07:42:46.941Z,29.03
2023-06-19T07:43:47.036Z,29.23
2023-06-19T07:44:47.076Z,29.41
2023-06-19T07:45:47.179Z,29.57
2023-06-19T07:46:47.258Z,29.73
2023-06-19T07:47:47.340Z,29.92
2023-06-19T07:48:47.399Z,30.00
2023-06-19T07:49:47.477Z,29.99
2023-06-19T07:50:47.589Z,30.04
2023-06-19T07:51:47.650Z,29.92
2023-06-19T07:52:47.734Z,29.82
2023-06-19T07:53:47.818Z,29.66
2023-06-19T07:54:47.902Z,29.54
2023-06-19T07:55:47.985Z,29.29
2023-06-19T07:56:48.093Z,29.14
2023-06-19T07:57:48.127Z,29.17
2023-06-19T07:58:48.233Z,29.15
2023-06-19T07:59:48.320Z,28.91
2023-06-19T08:00:48.400Z,28.67
2023-06-19T08:01:48.503Z,28.65
2023-06-19T08:02:48.648Z,28.58
2023-06-19T08:03:48.686Z,28.76
2023-06-19T08:04:48.782Z,29.27
2023-06-19T08:05:48.821Z,29.79
2023-06-19T08:06:48.906Z,30.06
2023-06-19T08:07:48.996Z,30.49
2023-06-19T08:08:49.084Z,30.93
2023-06-19T08:09:54.382Z,31.57
2023-06-19T08:10:49.256Z,31.99
2023-06-19T08:11:49.364Z,32.58
2023-06-19T08:12:50.133Z,33.21
2023-06-19T08:13:49.482Z,33.60
2023-06-19T08:14:49.571Z,33.22
2023-06-19T08:15:49.684Z,32.73
2023-06-19T08:16:49.796Z,32.35
2023-06-19T08:17:49.875Z,31.85
2023-06-19T08:18:49.906Z,31.53
2023-06-19T08:19:49.987Z,32.17
2023-06-19T08:20:50.091Z,32.49
2023-06-19T08:21:50.213Z,33.09
2023-06-19T08:22:50.232Z,33.26
2023-06-19T08:23:50.298Z,33.78
2023-06-19T08:24:50.394Z,34.08
2023-06-19T08:25:50.450Z,34.34
2023-06-19T08:26:50.574Z,34.55
2023-06-19T08:27:50.625Z,34.84
2023-06-19T08:28:50.708Z,34.52
2023-06-19T08:29:50.800Z,34.83
2023-06-19T08:30:50.917Z,35.29
2023-06-19T08:31:51.010Z,35.18
2023-06-19T08:32:51.102Z,34.71
2023-06-19T08:33:54.506Z,34.34
2023-06-19T08:34:51.236Z,34.76
2023-06-19T08:35:51.412Z,35.05
2023-06-19T08:36:51.426Z,35.06
2023-06-19T08:37:51.472Z,34.86
2023-06-19T08:38:51.562Z,34.63
2023-06-19T08:39:51.645Z,34.98
2023-06-19T08:40:51.737Z,35.20
2023-06-19T08:41:51.855Z,35.50
2023-06-19T08:42:51.911Z,35.84
2023-06-19T08:43:51.977Z,35.83
2023-06-19T08:44:52.077Z,36.30
2023-06-19T08:45:52.182Z,36.55
2023-06-19T08:46:52.240Z,36.56
2023-06-19T08:47:52.391Z,36.00
2023-06-19T08:48:52.397Z,36.03
2023-06-19T08:49:52.472Z,36.02
2023-06-19T08:50:52.576Z,35.42
2023-06-19T08:51:52.694Z,35.55
2023-06-19T08:52:52.737Z,35.62
2023-06-19T08:53:52.802Z,35.52
2023-06-19T08:54:52.911Z,35.05
2023-06-19T08:55:52.993Z,34.48
2023-06-19T08:56:53.162Z,34.01
2023-06-19T08:57:53.152Z,33.33
2023-06-19T08:58:53.246Z,32.61
2023-06-19T08:59:53.330Z,32.59
2023-06-19T09:00:53.424Z,32.80
2023-06-19T09:01:53.778Z,33.11
2023-06-19T09:03:54.030Z,33.52
2023-06-19T09:04:53.787Z,33.40
2023-06-19T09:05:54.023Z,33.28
2023-06-19T09:06:54.110Z,32.73
2023-06-19T09:07:54.043Z,32.56
2023-06-19T09:08:54.135Z,32.36
2023-06-19T09:09:54.243Z,32.17
2023-06-19T09:10:54.314Z,31.64
2023-06-19T09:11:54.410Z,31.59
2023-06-19T09:12:54.462Z,31.60
2023-06-19T09:13:54.542Z,31.60
2023-06-19T09:14:54.641Z,31.71
2023-06-19T09:15:54.728Z,31.49
2023-06-19T09:16:54.825Z,31.78
2023-06-19T09:17:54.903Z,32.07
2023-06-19T09:18:54.969Z,32.43
2023-06-19T09:19:55.061Z,32.66
2023-06-19T09:20:55.160Z,32.91
2023-06-19T09:21:57.026Z,33.12
2023-06-19T09:22:55.335Z,33.40
2023-06-19T09:23:55.467Z,33.86
2023-06-19T09:24:55.507Z,34.27
2023-06-19T09:25:55.586Z,34.73
2023-06-19T09:26:55.688Z,35.03
2023-06-19T09:27:55.793Z,35.36
2023-06-19T09:28:55.873Z,35.20
2023-06-19T09:29:55.923Z,35.56
2023-06-19T09:30:56.032Z,35.66
2023-06-19T09:31:56.107Z,35.09
2023-06-19T09:32:56.252Z,35.00
2023-06-19T09:33:56.335Z,35.50
2023-06-19T09:34:56.395Z,35.84
2023-06-19T09:35:56.465Z,36.25
2023-06-19T09:36:56.557Z,36.34
2023-06-19T09:37:56.656Z,36.56
2023-06-19T09:38:56.739Z,36.82
2023-06-19T09:39:56.816Z,37.08
2023-06-19T09:40:56.931Z,37.15
2023-06-19T09:41:56.987Z,37.40
2023-06-19T09:42:57.119Z,37.30
2023-06-19T09:43:57.141Z,36.97
2023-06-19T09:44:57.225Z,37.23
2023-06-19T09:45:57.308Z,37.66
2023-06-19T09:46:57.437Z,37.68
2023-06-19T09:47:57.520Z,37.75
2023-06-19T09:48:57.578Z,37.82
2023-06-19T09:49:57.643Z,38.04
2023-06-19T09:50:57.746Z,37.88
2023-06-19T09:51:57.824Z,37.73
2023-06-19T09:52:57.951Z,37.84
2023-06-19T09:53:57.996Z,37.23
2023-06-19T09:54:58.083Z,36.60
2023-06-19T09:55:58.172Z,36.60
2023-06-19T09:56:58.250Z,36.74
2023-06-19T09:57:58.361Z,36.79
2023-06-19T09:58:58.434Z,36.19
2023-06-19T10:00:00.534Z,35.71
2023-06-19T10:00:58.598Z,35.77
2023-06-19T10:01:58.707Z,35.87
2023-06-19T10:02:58.826Z,35.78
2023-06-19T10:03:58.850Z,36.08
2023-06-19T10:04:58.937Z,36.00
2023-06-19T10:05:59.078Z,35.98
2023-06-19T10:06:59.130Z,36.00
2023-06-19T10:07:59.213Z,36.22
2023-06-19T10:08:59.318Z,36.25
2023-06-19T10:09:59.362Z,36.44
2023-06-19T10:10:59.465Z,36.65
2023-06-19T10:11:59.529Z,36.79
2023-06-19T10:12:59.676Z,37.01
2023-06-19T10:13:59.677Z,37.23
2023-06-19T10:14:59.770Z,36.27
2023-06-19T10:15:59.850Z,35.78
2023-06-19T10:16:59.990Z,35.80
2023-06-19T10:18:00.120Z,35.83
2023-06-19T10:19:00.119Z,35.91
2023-06-19T10:20:00.165Z,35.98
2023-06-19T10:21:00.267Z,36.28
2023-06-19T10:22:01.516Z,36.41
2023-06-19T10:23:00.466Z,36.22
2023-06-19T10:24:00.542Z,36.06
2023-06-19T10:25:00.597Z,36.19
2023-06-19T10:26:01.030Z,36.00
2023-06-19T10:27:00.765Z,35.66
2023-06-19T10:28:00.886Z,35.24
2023-06-19T10:29:00.928Z,34.87
2023-06-19T10:30:08.396Z,34.34
2023-06-19T10:31:01.243Z,33.82
2023-06-19T10:32:01.176Z,33.49
2023-06-19T10:33:01.352Z,33.49
2023-06-19T10:34:01.330Z,33.40
2023-06-19T10:35:01.427Z,33.41
2023-06-19T10:36:01.517Z,33.62
2023-06-19T10:37:01.608Z,33.86
2023-06-19T10:38:01.704Z,34.11
2023-06-19T10:39:01.808Z,34.27
2023-06-19T10:40:01.862Z,34.53
2023-06-19T10:41:01.958Z,34.81
2023-06-19T10:42:03.330Z,34.93
2023-06-19T10:43:02.104Z,34.87
2023-06-19T10:44:02.149Z,34.87
2023-06-19T10:45:02.246Z,34.84
2023-06-19T10:46:02.335Z,34.83
2023-06-19T10:47:02.409Z,34.75
2023-06-19T10:48:02.567Z,34.71
2023-06-19T10:49:02.836Z,34.42
2023-06-19T10:50:02.648Z,34.40
2023-06-19T10:51:02.745Z,34.42
2023-06-19T10:52:02.837Z,34.36
2023-06-19T10:53:02.962Z,34.40
2023-06-19T10:54:02.999Z,34.37
2023-06-19T10:55:03.105Z,34.27
2023-06-19T10:56:03.187Z,34.28
2023-06-19T10:57:03.248Z,34.19
2023-06-19T10:58:03.361Z,33.99
2023-06-19T10:59:03.413Z,33.71
2023-06-19T11:00:03.509Z,33.52
2023-06-19T11:01:03.610Z,33.40
2023-06-19T11:02:03.719Z,33.26
2023-06-19T11:03:03.913Z,33.11
2023-06-19T11:04:03.824Z,32.85
2023-06-19T11:05:03.923Z,32.58
2023-06-19T11:06:03.985Z,32.63
2023-06-19T11:07:04.079Z,32.47
2023-06-19T11:08:04.188Z,32.50
2023-06-19T11:09:04.229Z,32.50
2023-06-19T11:10:04.347Z,32.50
2023-06-19T11:11:04.388Z,32.53
2023-06-19T11:12:04.480Z,32.54
2023-06-19T11:13:04.584Z,32.65
2023-06-19T11:14:04.657Z,32.76
2023-06-19T11:15:04.722Z,32.87
2023-06-19T11:16:04.824Z,32.93
2023-06-19T11:17:04.935Z,33.02
2023-06-19T11:18:05.039Z,33.17
2023-06-19T11:19:05.036Z,33.34
2023-06-19T11:20:05.133Z,33.52
2023-06-19T11:21:05.213Z,33.37
2023-06-19T11:22:05.315Z,33.35
2023-06-19T11:23:05.413Z,33.29
2023-06-19T11:24:05.586Z,32.81
2023-06-19T11:25:05.568Z,32.56
2023-06-19T11:26:05.681Z,32.28
2023-06-19T11:27:05.748Z,32.25
2023-06-19T11:28:05.899Z,32.40
2023-06-19T11:29:05.922Z,32.43
2023-06-19T11:30:06.024Z,32.53
2023-06-19T11:31:06.142Z,32.59
2023-06-19T11:32:06.199Z,32.76
2023-06-19T11:33:06.283Z,32.83
2023-06-19T11:34:06.331Z,32.84
2023-06-19T11:35:06.417Z,32.93
2023-06-19T11:36:06.511Z,33.02
2023-06-19T11:37:06.591Z,33.14
2023-06-19T11:38:06.726Z,33.26
2023-06-19T11:39:06.749Z,33.18
2023-06-19T11:40:06.841Z,33.14
2023-06-19T11:41:06.918Z,33.09
2023-06-19T11:42:07.011Z,33.09
2023-06-19T11:43:07.108Z,32.99
2023-06-19T11:44:07.154Z,32.91
2023-06-19T11:45:07.234Z,33.05
2023-06-19T11:46:07.377Z,33.11
2023-06-19T11:47:07.397Z,33.22
2023-06-19T11:48:07.593Z,33.35
2023-06-19T11:49:07.889Z,33.47
2023-06-19T11:50:07.666Z,33.33
2023-06-19T11:51:07.733Z,33.24
2023-06-19T11:52:07.830Z,32.99
2023-06-19T11:53:07.948Z,32.77
2023-06-19T11:54:07.996Z,32.65
2023-06-19T11:55:08.061Z,32.59
2023-06-19T11:56:08.145Z,32.49
2023-06-19T11:57:08.231Z,32.53
2023-06-19T11:58:08.330Z,32.61
2023-06-19T11:59:08.409Z,32.66
2023-06-19T12:00:08.512Z,32.78
2023-06-19T12:01:08.576Z,32.95
2023-06-19T12:02:08.776Z,33.07
2023-06-19T12:03:08.965Z,33.12
2023-06-19T12:04:08.992Z,33.17
2023-06-19T12:05:08.941Z,33.21
2023-06-19T12:06:08.989Z,33.06
2023-06-19T12:07:09.054Z,32.77
2023-06-19T12:08:09.165Z,32.73
2023-06-19T12:09:09.220Z,32.78
2023-06-19T12:10:09.298Z,32.76
2023-06-19T12:11:09.378Z,32.63
2023-06-19T12:12:09.464Z,32.36
2023-06-19T12:13:09.562Z,32.21
2023-06-19T12:14:09.638Z,32.27
2023-06-19T12:15:09.709Z,32.39
2023-06-19T12:16:09.803Z,32.46
2023-06-19T12:17:09.937Z,32.47
2023-06-19T12:18:10.093Z,32.53
2023-06-19T12:19:10.054Z,32.61
2023-06-19T12:20:10.197Z,32.71
2023-06-19T12:21:21.019Z,32.71
2023-06-19T12:22:10.309Z,32.53
2023-06-19T12:23:10.410Z,32.61
2023-06-19T12:24:10.531Z,32.65
2023-06-19T12:25:10.580Z,32.63
2023-06-19T12:26:10.663Z,32.47
2023-06-19T12:27:10.738Z,32.36
2023-06-19T12:28:10.860Z,32.46
2023-06-19T12:29:10.910Z,32.58
2023-06-19T12:30:11.049Z,32.65
2023-06-19T12:31:11.166Z,32.72
2023-06-19T12:32:11.174Z,32.84
2023-06-19T12:33:11.303Z,32.93
2023-06-19T12:34:28.796Z,32.96
2023-06-19T12:35:11.394Z,32.87
2023-06-19T12:36:11.461Z,32.85
2023-06-19T12:37:11.541Z,32.84
2023-06-19T12:38:11.663Z,32.84
2023-06-19T12:39:11.745Z,32.90
2023-06-19T12:40:11.829Z,32.91
2023-06-19T12:41:11.869Z,32.88
2023-06-19T12:42:11.963Z,32.85
2023-06-19T12:43:12.056Z,32.72
2023-06-19T12:44:12.147Z,32.71
2023-06-19T12:45:12.229Z,32.69
2023-06-19T12:46:12.343Z,32.66
2023-06-19T12:47:12.386Z,32.59
2023-06-19T12:48:12.544Z,32.50
2023-06-19T12:49:12.564Z,32.36
2023-06-19T12:50:12.664Z,32.31
2023-06-19T12:51:12.719Z,32.22
2023-06-19T12:52:12.815Z,32.16
2023-06-19T12:53:12.918Z,31.91
2023-06-19T12:54:12.980Z,31.79